Time;durP1;ratioP1;P1;durP2;ratioP2;P2;SDS_P1;SDS_P2;PMS_P1;PMS_P2;Temp;Humidity;BMP_temperature;BMP_pressure;BME280_temperature;BME280_humidity;BME280_pressure;Samples;Min_cycle;Max_cycle;Signal;HPM_P1;HPM_P2
2021/04/17 00:01:54;;;;;;;5.10;3.80;;;10.50;53.50;;;;;;5075047;28;20192;-76
2021/04/17 00:04:22;;;;;;;6.45;4.20;;;10.50;53.60;;;;;;5053647;28;20849;-76
2021/04/17 00:06:48;;;;;;;3.78;3.33;;;10.50;53.70;;;;;;5071287;28;20241;-76
2021/04/17 00:09:17;;;;;;;4.23;2.83;;;10.50;53.70;;;;;;5071716;28;20890;-77
2021/04/17 00:11:44;;;;;;;3.28;2.58;;;10.40;53.80;;;;;;5053522;28;20606;-76
2021/04/17 00:14:17;;;;;;;3.50;3.17;;;10.40;53.70;;;;;;5071558;28;20169;-76
2021/04/17 00:16:43;;;;;;;6.10;2.80;;;10.40;53.90;;;;;;5071269;28;20204;-77
2021/04/17 00:19:09;;;;;;;4.65;3.28;;;10.40;53.80;;;;;;5071456;28;20263;-76
2021/04/17 00:21:35;;;;;;;3.97;3.58;;;10.40;53.90;;;;;;5071348;28;20216;-76
2021/04/17 00:24:01;;;;;;;5.10;3.20;;;10.40;54.00;;;;;;5071369;28;20211;-76
2021/04/17 00:26:27;;;;;;;4.18;2.83;;;10.40;54.10;;;;;;5070904;28;20202;-76
2021/04/17 00:28:53;;;;;;;3.50;3.13;;;10.40;54.10;;;;;;5053388;28;20742;-76
2021/04/17 00:31:19;;;;;;;4.20;3.23;;;10.30;54.00;;;;;;5071124;28;20930;-76
2021/04/17 00:33:45;;;;;;;4.25;3.40;;;10.30;54.10;;;;;;5053279;28;20165;-77
2021/04/17 00:36:10;;;;;;;3.73;3.33;;;10.30;54.10;;;;;;5053224;28;20218;-76
2021/04/17 00:38:36;;;;;;;4.23;3.20;;;10.20;54.10;;;;;;5074576;28;20164;-76
2021/04/17 00:41:02;;;;;;;5.00;3.53;;;10.20;54.20;;;;;;5070943;28;20595;-76
2021/04/17 00:43:28;;;;;;;4.07;3.65;;;10.10;54.20;;;;;;5053143;28;20165;-76
2021/04/17 00:45:54;;;;;;;3.10;2.53;;;10.10;54.30;;;;;;5053081;28;20168;-76
2021/04/17 00:48:20;;;;;;;4.37;3.60;;;10.00;54.30;;;;;;5070445;28;20179;-76
2021/04/17 00:50:46;;;;;;;4.40;2.80;;;10.00;54.50;;;;;;5052740;28;20192;-76
2021/04/17 00:53:14;;;;;;;4.22;3.50;;;9.90;55.40;;;;;;5053127;28;20613;-76
2021/04/17 00:55:41;;;;;;;3.90;2.72;;;9.90;55.40;;;;;;5052949;28;20283;-76
2021/04/17 00:58:07;;;;;;;2.43;2.23;;;9.80;55.40;;;;;;5052787;28;20322;-76
2021/04/17 01:00:36;;;;;;;3.17;2.63;;;9.70;55.50;;;;;;5037014;28;20318;-76
2021/04/17 01:03:41;;;;;;;3.80;2.63;;;9.70;55.60;;;;;;5074385;28;20585;-76
2021/04/17 01:06:14;;;;;;;3.90;3.35;;;9.60;56.20;;;;;;5074102;28;20191;-75
2021/04/17 01:08:58;;;;;;;3.40;3.10;;;9.50;55.80;;;;;;5056085;28;20190;-79
2021/04/17 01:11:32;;;;;;;3.45;3.13;;;9.50;56.10;;;;;;5074124;28;20184;-79
2021/04/17 01:13:59;;;;;;;3.38;3.08;;;9.40;55.90;;;;;;5074514;28;20167;-79
2021/04/17 01:16:25;;;;;;;8.20;2.95;;;9.30;55.90;;;;;;5076979;28;20573;-79
2021/04/17 01:18:53;;;;;;;4.20;3.35;;;9.30;56.00;;;;;;5074249;28;20251;-79
2021/04/17 01:21:20;;;;;;;2.88;2.58;;;9.20;56.10;;;;;;5056088;28;20192;-79
2021/04/17 01:23:56;;;;;;;3.65;2.80;;;9.20;56.20;;;;;;5056297;28;20657;-79
2021/04/17 01:26:25;;;;;;;4.63;2.45;;;9.10;56.50;;;;;;5055879;28;20191;-79
2021/04/17 01:28:54;;;;;;;3.50;2.88;;;9.00;56.20;;;;;;5056226;28;20585;-80
2021/04/17 01:31:23;;;;;;;4.28;3.47;;;9.00;56.30;;;;;;5055865;28;20349;-79
2021/04/17 01:33:52;;;;;;;4.95;2.40;;;9.00;56.50;;;;;;5056067;28;20539;-79
2021/04/17 01:36:19;;;;;;;3.88;2.85;;;9.00;56.60;;;;;;5073297;28;20259;-79
2021/04/17 01:38:50;;;;;;;3.20;2.75;;;8.90;56.60;;;;;;5039203;28;20713;-78
2021/04/17 01:41:20;;;;;;;5.90;3.13;;;8.90;57.50;;;;;;5073752;28;20193;-79
2021/04/17 01:43:52;;;;;;;4.15;2.88;;;8.80;56.80;;;;;;5073859;28;20200;-79
2021/04/17 01:46:22;;;;;;;3.45;3.00;;;8.80;56.90;;;;;;5073612;28;20208;-80
2021/04/17 01:48:51;;;;;;;4.82;2.80;;;8.80;57.00;;;;;;5073595;28;20248;-79
2021/04/17 01:51:19;;;;;;;3.40;3.00;;;8.70;57.10;;;;;;5073636;28;20617;-79
2021/04/17 01:53:45;;;;;;;3.05;2.53;;;8.70;57.20;;;;;;5041708;28;20321;-79
2021/04/17 01:56:12;;;;;;;4.47;2.75;;;8.70;57.20;;;;;;5039141;28;20169;-79
2021/04/17 01:58:41;;;;;;;3.80;2.75;;;8.60;57.30;;;;;;5073321;28;20207;-79
2021/04/17 02:01:07;;;;;;;4.53;3.40;;;8.60;57.40;;;;;;5038749;28;20211;-79
2021/04/17 02:03:34;;;;;;;3.67;2.60;;;8.60;57.40;;;;;;5073507;28;20207;-79
2021/04/17 02:06:00;;;;;;;5.05;3.33;;;8.50;57.40;;;;;;5055385;28;20618;-79
2021/04/17 02:08:26;;;;;;;3.30;2.72;;;8.50;57.50;;;;;;5055159;28;20179;-80
2021/04/17 02:10:56;;;;;;;3.70;2.85;;;8.40;57.50;;;;;;5073131;28;20199;-80
2021/04/17 02:13:21;;;;;;;4.33;3.17;;;8.40;57.60;;;;;;5072243;28;20168;-79
2021/04/17 02:15:48;;;;;;;3.33;2.90;;;8.30;57.60;;;;;;5055264;28;20207;-78
2021/04/17 02:18:23;;;;;;;3.65;3.08;;;8.30;57.80;;;;;;5072957;28;20172;-78
2021/04/17 02:21:01;;;;;;;3.15;2.85;;;8.30;58.00;;;;;;5055039;28;20184;-81
2021/04/17 02:23:28;;;;;;;4.60;3.80;;;8.20;58.00;;;;;;5073181;28;20172;-79
2021/04/17 02:25:58;;;;;;;4.70;3.65;;;8.20;57.90;;;;;;5072962;28;20203;-79
2021/04/17 02:28:28;;;;;;;3.92;3.58;;;8.10;58.00;;;;;;5054930;28;20640;-79
2021/04/17 02:30:56;;;;;;;5.95;3.80;;;8.10;58.20;;;;;;5075827;28;20743;-79
2021/04/17 02:33:23;;;;;;;4.10;3.20;;;8.00;58.10;;;;;;5055151;28;20173;-79
2021/04/17 02:35:49;;;;;;;4.25;3.85;;;8.00;58.20;;;;;;5054900;28;20179;-79
2021/04/17 02:38:17;;;;;;;7.15;3.55;;;8.00;58.30;;;;;;5072330;28;20179;-78
2021/04/17 02:40:43;;;;;;;4.28;2.92;;;7.90;58.40;;;;;;5072667;28;20279;-79
2021/04/17 02:43:08;;;;;;;3.47;3.17;;;7.90;58.40;;;;;;5054747;28;20251;-79
2021/04/17 02:45:35;;;;;;;3.37;3.07;;;7.80;58.40;;;;;;5072635;28;20637;-79
2021/04/17 02:48:01;;;;;;;3.53;2.58;;;7.80;58.60;;;;;;5072212;28;20716;-78
2021/04/17 02:50:27;;;;;;;3.13;2.63;;;7.80;58.70;;;;;;5072665;28;20295;-79
2021/04/17 02:52:53;;;;;;;3.70;3.27;;;7.70;58.70;;;;;;5055982;28;20656;-79
2021/04/17 02:55:19;;;;;;;3.97;3.58;;;7.70;58.80;;;;;;5073987;28;20259;-79
2021/04/17 02:57:47;;;;;;;5.00;3.22;;;7.60;58.90;;;;;;5071726;28;20176;-79
2021/04/17 03:00:16;;;;;;;4.60;3.28;;;7.60;59.10;;;;;;5072109;28;20561;-79
2021/04/17 03:02:42;;;;;;;3.97;3.63;;;7.60;59.20;;;;;;5054396;28;20176;-79
2021/04/17 03:05:09;;;;;;;3.37;3.07;;;7.50;59.20;;;;;;5054516;28;20164;-79
2021/04/17 03:07:35;;;;;;;7.20;3.70;;;7.50;59.30;;;;;;5075197;28;20183;-79
2021/04/17 03:10:01;;;;;;;6.22;3.95;;;7.50;59.50;;;;;;5037922;28;20584;-79
2021/04/17 03:12:27;;;;;;;4.47;3.40;;;7.40;59.60;;;;;;5071896;28;20235;-79
2021/04/17 03:14:52;;;;;;;4.73;3.83;;;7.40;59.60;;;;;;5072150;28;20192;-79
2021/04/17 03:17:18;;;;;;;6.90;4.50;;;7.40;59.80;;;;;;5071560;28;20641;-77
2021/04/17 03:19:44;;;;;;;4.87;3.70;;;7.30;59.90;;;;;;5054133;28;20195;-77
2021/04/17 03:22:09;;;;;;;6.27;3.87;;;7.30;60.00;;;;;;5071891;28;20237;-77
2021/04/17 03:24:36;;;;;;;5.50;3.50;;;7.30;60.10;;;;;;5053869;28;20530;-77
2021/04/17 03:27:04;;;;;;;3.72;3.42;;;7.30;60.20;;;;;;5053433;28;20196;-77
2021/04/17 03:29:30;;;;;;;4.85;3.30;;;7.20;60.30;;;;;;5053937;28;20168;-77
2021/04/17 03:31:56;;;;;;;5.95;3.97;;;7.20;60.50;;;;;;5053677;28;20583;-77
2021/04/17 03:34:22;;;;;;;4.90;3.73;;;7.20;60.70;;;;;;5071757;28;20172;-77
2021/04/17 03:36:48;;;;;;;5.03;3.37;;;7.10;60.80;;;;;;5053416;28;20172;-77
2021/04/17 03:39:13;;;;;;;5.38;4.03;;;7.10;61.00;;;;;;5053825;28;20164;-77
2021/04/17 03:41:39;;;;;;;5.27;4.10;;;7.10;61.20;;;;;;5071677;28;20184;-77
2021/04/17 03:44:05;;;;;;;5.17;3.97;;;7.00;61.40;;;;;;5041043;28;20172;-78
2021/04/17 03:46:31;;;;;;;4.20;3.53;;;7.00;61.60;;;;;;5053192;28;20192;-78
2021/04/17 03:48:57;;;;;;;4.47;3.63;;;7.00;61.80;;;;;;5053821;28;20165;-77
2021/04/17 03:51:28;;;;;;;3.87;3.50;;;7.00;62.00;;;;;;5117520;22;20638;-77
2021/04/17 03:54:01;;;;;;;3.70;3.35;;;7.00;62.40;;;;;;5091300;28;20262;-77
2021/04/17 03:56:27;;;;;;;4.80;3.78;;;6.90;62.10;;;;;;5053589;28;20187;-78
2021/04/17 03:58:56;;;;;;;4.63;3.80;;;6.90;62.40;;;;;;5070422;28;20164;-77
2021/04/17 04:01:29;;;;;;;3.70;2.78;;;6.90;62.70;;;;;;5066236;28;20184;-76
2021/04/17 04:03:57;;;;;;;4.63;3.40;;;6.90;62.90;;;;;;5033789;28;20455;-76
2021/04/17 04:06:26;;;;;;;5.63;3.22;;;6.90;63.10;;;;;;5017765;28;20192;-77
2021/04/17 04:08:52;;;;;;;4.00;3.28;;;6.80;62.80;;;;;;5018167;28;20167;-77
2021/04/17 04:11:29;;;;;;;3.35;2.90;;;6.80;63.30;;;;;;5051420;28;20338;-77
2021/04/17 04:14:05;;;;;;;3.78;3.40;;;6.80;63.30;;;;;;5051181;28;20191;-78
2021/04/17 04:16:33;;;;;;;4.30;3.03;;;6.80;64.20;;;;;;5051066;28;20169;-77
2021/04/17 04:19:11;;;;;;;4.95;3.10;;;6.80;64.00;;;;;;5051457;28;20176;-77
2021/04/17 04:21:39;;;;;;;3.90;3.53;;;6.70;64.70;;;;;;5033584;28;20200;-78
2021/04/17 04:24:17;;;;;;;3.80;3.40;;;6.70;64.10;;;;;;5017070;28;20200;-78
2021/04/17 04:26:43;;;;;;;5.30;3.75;;;6.70;64.90;;;;;;5033009;28;20212;-77
2021/04/17 04:29:12;;;;;;;4.45;3.72;;;6.60;64.40;;;;;;5000434;28;20181;-77
2021/04/17 04:31:41;;;;;;;6.40;3.92;;;6.70;64.90;;;;;;5017123;28;20220;-76
2021/04/17 04:34:07;;;;;;;4.60;3.30;;;6.60;64.60;;;;;;5033451;28;20165;-77
2021/04/17 04:36:33;;;;;;;4.33;2.83;;;6.60;64.70;;;;;;5018942;28;20578;-78
2021/04/17 04:38:59;;;;;;;3.87;3.00;;;6.60;65.20;;;;;;5053908;28;20579;-78
2021/04/17 04:41:24;;;;;;;4.83;2.80;;;6.60;65.40;;;;;;5054842;28;20599;-77
2021/04/17 04:43:50;;;;;;;5.07;2.80;;;6.60;65.60;;;;;;5020672;28;20663;-77
2021/04/17 04:46:16;;;;;;;3.60;3.30;;;6.60;66.70;;;;;;5056950;28;20627;-77
2021/04/17 04:48:42;;;;;;;3.20;2.90;;;6.60;66.00;;;;;;5036738;28;20180;-76
2021/04/17 04:51:09;;;;;;;4.37;3.43;;;6.50;65.90;;;;;;5020465;28;20173;-77
2021/04/17 04:53:36;;;;;;;4.03;2.92;;;6.60;66.30;;;;;;5054589;28;20583;-76
2021/04/17 04:56:02;;;;;;;3.60;2.92;;;6.60;66.60;;;;;;5036854;28;20177;-76
2021/04/17 04:58:30;;;;;;;4.43;2.95;;;6.50;66.40;;;;;;5038536;28;20177;-76
2021/04/17 05:00:56;;;;;;;3.73;3.37;;;6.60;66.90;;;;;;5055340;28;20177;-77
2021/04/17 05:03:22;;;;;;;4.50;2.90;;;6.50;67.00;;;;;;5036899;28;20216;-77
2021/04/17 05:05:51;;;;;;;4.43;3.10;;;6.60;67.40;;;;;;5053489;28;20199;-76
2021/04/17 05:08:18;;;;;;;6.40;4.10;;;6.60;67.90;;;;;;5036965;28;20165;-77
2021/04/17 05:10:43;;;;;;;5.00;3.78;;;6.60;67.90;;;;;;5036863;28;20177;-77
2021/04/17 05:13:09;;;;;;;4.50;4.03;;;6.60;68.10;;;;;;5054548;28;20181;-78
2021/04/17 05:15:37;;;;;;;4.72;3.42;;;6.60;67.70;;;;;;5037005;28;20184;-77
2021/04/17 05:18:03;;;;;;;4.30;3.30;;;6.60;68.10;;;;;;5053018;28;20168;-77
2021/04/17 05:20:29;;;;;;;4.85;2.85;;;6.70;68.20;;;;;;5036406;28;20173;-76
2021/04/17 05:22:54;;;;;;;4.87;3.50;;;6.70;68.60;;;;;;5053242;28;20565;-76
2021/04/17 05:25:20;;;;;;;4.80;3.80;;;6.80;68.70;;;;;;5041458;28;20657;-77
2021/04/17 05:27:49;;;;;;;4.03;3.40;;;6.80;68.60;;;;;;5072696;28;20179;-77
2021/04/17 05:30:18;;;;;;;5.72;3.75;;;6.80;69.10;;;;;;5062902;28;20176;-78
2021/04/17 05:32:44;;;;;;;4.30;3.40;;;6.80;68.90;;;;;;5036384;28;20574;-78
2021/04/17 05:35:10;;;;;;;3.13;2.83;;;6.90;69.40;;;;;;5055176;28;20175;-77
2021/04/17 05:37:36;;;;;;;4.00;3.63;;;6.90;69.70;;;;;;5037014;28;20176;-76
2021/04/17 05:40:03;;;;;;;3.13;2.83;;;7.00;69.60;;;;;;5072567;28;20164;-76
2021/04/17 05:42:29;;;;;;;6.15;2.85;;;7.10;69.80;;;;;;5039305;28;20195;-76
2021/04/17 05:44:57;;;;;;;3.17;2.80;;;7.10;69.80;;;;;;5059695;28;20176;-76
2021/04/17 05:47:23;;;;;;;4.30;3.57;;;7.20;70.00;;;;;;5034117;28;20208;-77
2021/04/17 05:49:49;;;;;;;5.13;3.10;;;7.30;70.00;;;;;;5066755;28;20169;-77
2021/04/17 05:52:17;;;;;;;5.03;3.15;;;7.40;70.20;;;;;;5050765;28;20679;-76
2021/04/17 05:54:43;;;;;;;3.23;2.73;;;7.50;70.30;;;;;;5050712;28;20193;-76
2021/04/17 05:57:09;;;;;;;3.70;2.90;;;7.60;70.20;;;;;;5063538;28;20971;-75
2021/04/17 05:59:34;;;;;;;3.43;2.93;;;7.60;69.90;;;;;;5056449;28;20211;-76
2021/04/17 06:02:00;;;;;;;4.07;3.43;;;7.70;69.90;;;;;;5073316;28;20203;-78
2021/04/17 06:04:26;;;;;;;3.87;3.07;;;7.80;69.90;;;;;;5073344;28;20594;-76
2021/04/17 06:06:52;;;;;;;5.20;3.27;;;7.80;69.90;;;;;;5054947;28;21246;-77
2021/04/17 06:09:21;;;;;;;4.75;2.78;;;7.80;69.80;;;;;;5073440;28;20251;-78
2021/04/17 06:11:47;;;;;;;4.28;3.53;;;7.90;69.80;;;;;;5065685;28;20188;-76
2021/04/17 06:14:13;;;;;;;5.30;4.27;;;7.90;69.70;;;;;;5054896;28;20177;-75
2021/04/17 06:16:39;;;;;;;6.90;4.33;;;8.00;69.90;;;;;;5035071;28;20722;-75
2021/04/17 06:19:06;;;;;;;7.50;5.00;;;8.10;70.00;;;;;;5034224;28;20728;-75
2021/04/17 06:21:33;;;;;;;6.47;4.70;;;8.10;73.60;;;;;;5052861;28;20262;-75
2021/04/17 06:23:58;;;;;;;4.35;3.80;;;8.20;72.40;;;;;;5053131;28;20575;-76
2021/04/17 06:26:24;;;;;;;6.10;3.33;;;8.30;72.00;;;;;;5052659;28;20223;-77
2021/04/17 06:28:50;;;;;;;5.40;3.60;;;8.50;71.90;;;;;;5044879;28;20168;-76
2021/04/17 06:31:17;;;;;;;4.45;3.50;;;8.90;73.90;;;;;;5054680;28;20504;-75
2021/04/17 06:33:43;;;;;;;5.22;3.65;;;9.40;74.30;;;;;;5054902;28;20214;-76
2021/04/17 06:36:09;;;;;;;8.60;3.53;;;10.00;73.40;;;;;;5055231;28;20247;-76
2021/04/17 06:38:35;;;;;;;6.03;3.47;;;10.40;73.20;;;;;;5063749;28;20957;-75
2021/04/17 06:41:02;;;;;;;4.60;3.20;;;10.80;72.60;;;;;;5034813;28;20255;-76
2021/04/17 06:43:33;;;;;;;6.27;4.50;;;11.20;71.80;;;;;;5052141;28;20799;-75
2021/04/17 06:46:01;;;;;;;7.32;4.45;;;11.50;68.90;;;;;;5052449;28;21226;-76
2021/04/17 06:48:27;;;;;;;6.68;4.70;;;11.70;69.70;;;;;;5052272;28;20251;-76
2021/04/17 06:50:54;;;;;;;4.07;3.25;;;12.20;70.80;;;;;;5058756;28;20229;-76
2021/04/17 06:53:23;;;;;;;3.97;3.58;;;13.10;72.80;;;;;;5044483;28;20636;-76
2021/04/17 06:55:53;;;;;;;3.70;3.10;;;14.10;73.80;;;;;;5034498;28;20660;-76
2021/04/17 06:58:22;;;;;;;3.80;2.60;;;15.20;74.20;;;;;;5051881;28;20564;-77
2021/04/17 07:00:48;;;;;;;3.90;3.17;;;16.40;74.30;;;;;;5051175;28;20607;-77
2021/04/17 07:03:17;;;;;;;3.83;2.70;;;17.50;74.70;;;;;;5053966;28;20591;-76
2021/04/17 07:05:44;;;;;;;6.00;3.07;;;18.60;72.30;;;;;;5065823;28;20728;-78
2021/04/17 07:08:10;;;;;;;4.60;2.90;;;19.80;70.80;;;;;;5082534;28;20895;-78
2021/04/17 07:10:35;;;;;;;3.77;2.90;;;20.80;69.20;;;;;;5034526;28;20717;-77
2021/04/17 07:13:13;;;;;;;4.30;3.60;;;21.70;67.10;;;;;;5068143;28;20624;-76
2021/04/17 07:15:42;;;;;;;5.40;2.90;;;22.50;64.40;;;;;;5063383;28;21145;-77
2021/04/17 07:18:26;;;;;;;5.93;3.00;;;23.30;63.10;;;;;;5032157;28;20934;-76
2021/04/17 07:20:58;;;;;;;4.47;3.13;;;24.00;61.20;;;;;;5066482;28;20677;-79
2021/04/17 07:23:30;;;;;;;6.20;3.10;;;24.80;59.70;;;;;;5038063;28;20617;-77
2021/04/17 07:26:15;;;;;;;3.07;2.17;;;25.40;58.10;;;;;;5053812;28;20645;-77
2021/04/17 07:28:55;;;;;;;4.87;2.70;;;26.10;58.10;;;;;;5057844;28;20691;-76
2021/04/17 07:31:25;;;;;;;6.90;2.57;;;26.60;57.00;;;;;;5054456;28;20959;-79
2021/04/17 07:33:55;;;;;;;3.10;2.77;;;27.10;55.10;;;;;;5053135;28;20594;-77
2021/04/17 07:36:22;;;;;;;5.00;3.20;;;27.40;53.60;;;;;;5054070;28;20583;-79
2021/04/17 07:38:48;;;;;;;4.00;2.40;;;27.70;52.50;;;;;;5042222;28;20594;-78
2021/04/17 07:41:16;;;;;;;3.40;2.07;;;28.00;51.00;;;;;;5031489;28;20575;-77
2021/04/17 07:43:46;;;;;;;3.33;2.40;;;28.20;49.60;;;;;;5031434;28;20578;-77
2021/04/17 07:46:15;;;;;;;6.13;2.40;;;28.30;48.20;;;;;;5054224;28;20638;-78
2021/04/17 07:48:41;;;;;;;3.17;2.33;;;28.40;47.50;;;;;;5061622;28;21166;-77
2021/04/17 07:51:09;;;;;;;3.50;2.40;;;28.40;46.90;;;;;;5059415;28;20570;-78
2021/04/17 07:53:38;;;;;;;3.20;1.70;;;28.50;46.20;;;;;;5040214;28;20588;-78
2021/04/17 07:56:23;;;;;;;2.57;1.70;;;28.50;45.20;;;;;;5034530;28;20587;-77
2021/04/17 07:58:50;;;;;;;3.60;1.80;;;28.50;44.50;;;;;;5018119;28;20574;-78
2021/04/17 08:01:17;;;;;;;3.60;2.00;;;28.50;43.80;;;;;;5034358;28;20901;-78
2021/04/17 08:03:45;;;;;;;2.40;1.63;;;28.50;43.50;;;;;;5052356;28;20565;-77
2021/04/17 08:06:12;;;;;;;1.83;1.00;;;28.60;43.20;;;;;;5007697;28;20626;-78
2021/04/17 08:08:39;;;;;;;2.10;1.77;;;28.60;43.10;;;;;;5065043;28;20573;-78
2021/04/17 08:11:05;;;;;;;1.87;1.67;;;28.80;42.80;;;;;;5078061;28;21177;-77
2021/04/17 08:13:32;;;;;;;3.30;1.77;;;28.90;41.90;;;;;;5077165;28;20575;-78
2021/04/17 08:16:00;;;;;;;2.90;1.03;;;29.00;42.30;;;;;;5065588;28;20629;-77
2021/04/17 08:18:27;;;;;;;2.27;1.43;;;29.30;42.30;;;;;;5059801;28;20606;-79
2021/04/17 08:20:53;;;;;;;2.23;1.40;;;29.40;41.10;;;;;;5059703;28;20563;-78
2021/04/17 08:23:22;;;;;;;2.73;1.70;;;29.50;40.70;;;;;;5078704;28;20606;-78
2021/04/17 08:25:53;;;;;;;1.93;1.03;;;29.60;39.60;;;;;;5061562;28;20582;-79
2021/04/17 08:28:23;;;;;;;2.50;1.67;;;29.70;39.70;;;;;;5042906;28;21167;-79
2021/04/17 08:30:49;;;;;;;3.13;2.00;;;29.80;38.60;;;;;;5065899;28;20574;-79
2021/04/17 08:33:19;;;;;;;3.50;1.63;;;29.80;38.30;;;;;;5049460;28;20614;-78
2021/04/17 08:35:46;;;;;;;3.47;1.17;;;29.80;38.30;;;;;;5022196;28;20681;-78
2021/04/17 08:38:14;;;;;;;3.47;1.37;;;29.90;38.30;;;;;;5057319;28;20564;-78
2021/04/17 08:40:51;;;;;;;1.90;1.43;;;29.90;36.50;;;;;;5048220;28;20583;-78
2021/04/17 08:43:17;;;;;;;2.43;1.40;;;29.80;36.10;;;;;;5067843;28;21189;-78
2021/04/17 08:46:15;;;;;;;2.30;1.13;;;29.70;36.50;;;;;;5039015;28;20571;-78
2021/04/17 08:48:45;;;;;;;2.80;1.10;;;29.70;36.50;;;;;;5055953;28;20531;-79
2021/04/17 08:51:36;;;;;;;1.40;1.00;;;29.80;36.60;;;;;;5037644;28;20729;-79
2021/04/17 08:54:02;;;;;;;2.63;1.27;;;29.80;35.60;;;;;;5037488;28;20583;-78
2021/04/17 08:56:52;;;;;;;4.10;1.43;;;29.90;36.10;;;;;;5024035;28;20631;-79
2021/04/17 08:59:19;;;;;;;2.50;1.40;;;29.90;36.00;;;;;;5066782;28;21121;-78
2021/04/17 09:01:46;;;;;;;2.63;1.53;;;29.80;35.50;;;;;;5056800;28;21377;-78
2021/04/17 09:04:13;;;;;;;3.07;1.37;;;29.70;35.30;;;;;;5075811;28;20585;-77
2021/04/17 09:06:44;;;;;;;2.97;1.40;;;29.90;35.80;;;;;;5079273;28;20577;-78
2021/04/17 09:09:16;;;;;;;2.53;1.30;;;30.00;35.30;;;;;;5056557;28;20692;-78
2021/04/17 09:11:43;;;;;;;3.10;2.13;;;29.90;34.80;;;;;;5056747;28;20602;-78
2021/04/17 09:14:30;;;;;;;6.00;1.90;;;29.50;34.00;;;;;;5040274;28;20904;-78
2021/04/17 09:17:31;;;;;;;2.40;1.87;;;29.20;34.40;;;;;;5056331;28;20650;-79
2021/04/17 09:20:12;;;;;;;6.30;2.40;;;28.80;34.40;;;;;;5051035;28;20593;-78
2021/04/17 09:22:38;;;;;;;3.43;1.70;;;28.20;33.00;;;;;;5072727;28;21325;-78
2021/04/17 09:25:12;;;;;;;2.30;1.80;;;27.80;34.30;;;;;;5057715;28;20570;-77
2021/04/17 09:27:50;;;;;;;3.40;1.77;;;27.50;34.20;;;;;;5057386;28;20270;-77
2021/04/17 09:30:22;;;;;;;3.40;1.33;;;27.30;34.20;;;;;;5074530;28;20565;-78
2021/04/17 09:32:57;;;;;;;3.40;1.33;;;27.20;34.60;;;;;;5073155;28;20605;-77
2021/04/17 09:35:37;;;;;;;3.60;1.30;;;27.20;34.50;;;;;;5056278;28;20903;-79
2021/04/17 09:38:23;;;;;;;3.37;1.43;;;27.20;34.10;;;;;;5074170;28;20602;-78
2021/04/17 09:40:54;;;;;;;3.40;1.87;;;27.00;34.10;;;;;;5040595;28;20616;-75
2021/04/17 09:43:25;;;;;;;4.60;1.53;;;26.80;33.90;;;;;;5076132;28;20586;-75
2021/04/17 09:46:03;;;;;;;2.53;1.70;;;26.50;34.60;;;;;;5075015;28;20562;-75
2021/04/17 09:48:41;;;;;;;3.13;2.00;;;26.40;34.10;;;;;;5068832;28;20583;-76
2021/04/17 09:51:25;;;;;;;3.57;1.80;;;26.10;33.90;;;;;;5073311;28;20634;-75
2021/04/17 09:53:52;;;;;;;2.57;1.50;;;25.70;34.40;;;;;;5056655;28;20601;-82
2021/04/17 09:56:41;;;;;;;2.83;1.50;;;25.20;34.20;;;;;;5056118;28;20717;-82
2021/04/17 09:59:12;;;;;;;2.60;1.50;;;24.70;34.10;;;;;;5057152;28;20628;-82
2021/04/17 10:01:49;;;;;;;3.20;1.60;;;24.20;34.10;;;;;;5056031;28;20714;-82
2021/04/17 10:04:15;;;;;;;4.00;1.13;;;23.70;34.10;;;;;;5039571;28;20652;-82
2021/04/17 10:06:41;;;;;;;3.07;1.50;;;23.20;34.50;;;;;;5073956;28;20590;-83
2021/04/17 10:09:07;;;;;;;2.40;1.53;;;23.00;34.70;;;;;;5038101;28;20310;-81
2021/04/17 10:11:37;;;;;;;9.80;1.80;;;22.70;34.90;;;;;;5047995;28;20645;-82
2021/04/17 10:14:04;;;;;;;2.33;1.27;;;22.40;34.80;;;;;;5055766;28;20175;-82
2021/04/17 10:16:35;;;;;;;6.03;2.20;;;22.20;35.40;;;;;;5073682;28;20725;-81
2021/04/17 10:19:02;;;;;;;2.83;1.17;;;22.00;35.30;;;;;;5056407;28;20565;-83
2021/04/17 10:21:33;;;;;;;2.07;1.10;;;21.80;35.60;;;;;;5060207;28;20972;-82
2021/04/17 10:24:21;;;;;;;3.03;1.47;;;21.70;35.40;;;;;;5074197;28;20655;-83
2021/04/17 10:27:07;;;;;;;3.20;1.53;;;21.80;36.20;;;;;;5072814;28;20566;-84
2021/04/17 10:29:37;;;;;;;2.63;1.90;;;22.10;36.10;;;;;;5074287;28;20573;-84
2021/04/17 10:32:11;;;;;;;3.83;1.30;;;22.50;36.40;;;;;;5073482;28;20605;-84
2021/04/17 10:34:38;;;;;;;2.47;1.27;;;22.70;36.00;;;;;;5038603;28;20658;-84
2021/04/17 10:37:17;;;;;;;4.63;1.33;;;22.80;35.80;;;;;;5055310;28;20725;-83
2021/04/17 10:40:10;;;;;;;2.10;1.27;;;22.80;35.40;;;;;;5039237;28;20562;-84
2021/04/17 10:42:55;;;;;;;4.67;1.47;;;22.80;35.30;;;;;;5055579;28;21220;-83
2021/04/17 10:45:59;;;;;;;3.10;1.47;;;22.80;35.60;;;;;;5055773;28;20554;-84
2021/04/17 10:48:27;;;;;;;4.63;1.53;;;22.90;35.70;;;;;;5051944;28;20598;-84
2021/04/17 10:51:03;;;;;;;4.13;1.63;;;22.90;36.10;;;;;;5072015;28;21130;-85
2021/04/17 10:53:34;;;;;;;2.50;1.30;;;23.00;36.10;;;;;;5055221;28;20681;-83
2021/04/17 10:56:19;;;;;;;2.03;1.20;;;23.30;36.10;;;;;;5057488;28;20629;-84
2021/04/17 10:58:48;;;;;;;1.63;1.40;;;23.40;36.20;;;;;;5059688;28;21143;-84
2021/04/17 11:01:23;;;;;;;1.97;1.13;;;23.60;36.00;;;;;;5055233;28;20624;-83
2021/04/17 11:03:54;;;;;;;2.67;1.43;;;23.50;35.30;;;;;;5054974;28;20571;-84
2021/04/17 11:06:47;;;;;;;2.17;0.90;;;23.40;34.90;;;;;;5054542;28;20761;-84
2021/04/17 11:09:13;;;;;;;1.50;1.10;;;23.30;35.00;;;;;;5054757;28;20570;-83
2021/04/17 11:11:55;;;;;;;3.50;1.50;;;23.20;35.30;;;;;;5055306;28;20609;-84
2021/04/17 11:14:24;;;;;;;2.90;1.30;;;23.30;35.70;;;;;;5055300;28;20581;-84
2021/04/17 11:16:52;;;;;;;2.50;1.20;;;23.40;35.90;;;;;;5055173;28;21195;-83
2021/04/17 11:19:31;;;;;;;3.00;1.40;;;23.50;35.90;;;;;;5073040;28;20574;-84
2021/04/17 11:22:13;;;;;;;2.30;1.50;;;23.70;35.70;;;;;;5073091;28;20605;-83
2021/04/17 11:24:41;;;;;;;2.37;1.40;;;24.00;36.00;;;;;;5072644;28;20971;-83
2021/04/17 11:27:07;;;;;;;2.70;1.77;;;24.30;35.90;;;;;;5073288;28;20566;-84
2021/04/17 11:29:37;;;;;;;3.23;1.90;;;24.20;34.70;;;;;;5071467;28;20570;-83
2021/04/17 11:32:03;;;;;;;2.03;1.30;;;23.90;34.30;;;;;;5037728;28;20620;-83
2021/04/17 11:34:28;;;;;;;4.57;1.23;;;23.70;34.60;;;;;;5077429;28;20669;-83
2021/04/17 11:36:54;;;;;;;2.77;1.67;;;23.50;34.40;;;;;;5072384;28;20617;-83
2021/04/17 11:39:20;;;;;;;3.90;1.30;;;23.20;34.30;;;;;;5072705;28;20165;-84
2021/04/17 11:41:46;;;;;;;2.77;1.80;;;23.00;34.50;;;;;;5072642;28;20678;-82
2021/04/17 11:44:13;;;;;;;3.73;1.70;;;22.90;34.80;;;;;;5038542;28;20226;-83
2021/04/17 11:46:39;;;;;;;2.33;1.70;;;22.80;34.90;;;;;;5054148;28;20575;-84
2021/04/17 11:49:08;;;;;;;7.43;1.77;;;22.80;35.20;;;;;;5072601;28;20566;-83
2021/04/17 11:51:34;;;;;;;2.23;1.10;;;22.80;35.30;;;;;;5080262;28;20996;-83
2021/04/17 11:53:59;;;;;;;3.37;1.40;;;22.70;35.10;;;;;;5060738;28;20673;-82
2021/04/17 11:56:25;;;;;;;2.97;1.80;;;22.50;34.60;;;;;;5044927;28;20665;-83
2021/04/17 11:58:53;;;;;;;2.90;1.50;;;22.20;34.30;;;;;;5054495;28;21101;-83
2021/04/17 12:01:22;;;;;;;3.23;1.80;;;21.80;34.00;;;;;;5054455;28;20165;-84
2021/04/17 12:03:48;;;;;;;2.43;1.60;;;21.40;33.80;;;;;;5072094;28;20559;-82
2021/04/17 12:06:14;;;;;;;2.80;1.60;;;21.00;33.80;;;;;;5072617;28;20597;-82
2021/04/17 12:08:41;;;;;;;3.33;1.50;;;20.50;34.00;;;;;;5021093;28;20203;-83
2021/04/17 12:11:07;;;;;;;2.83;1.50;;;20.10;34.00;;;;;;5058893;28;20630;-83
2021/04/17 12:13:33;;;;;;;5.13;1.57;;;19.80;34.30;;;;;;5054520;28;20571;-83
2021/04/17 12:16:03;;;;;;;3.20;1.17;;;19.60;34.50;;;;;;5072033;28;20614;-83
2021/04/17 12:18:29;;;;;;;2.23;1.47;;;19.50;34.80;;;;;;5071565;28;20578;-84
2021/04/17 12:20:55;;;;;;;3.77;2.60;;;19.40;35.10;;;;;;5072186;28;20607;-82
2021/04/17 12:23:21;;;;;;;2.80;1.97;;;19.30;35.40;;;;;;5053959;28;21406;-84
2021/04/17 12:25:46;;;;;;;2.33;1.30;;;19.20;35.70;;;;;;5053741;28;20573;-83
2021/04/17 12:28:12;;;;;;;2.87;1.73;;;19.10;35.90;;;;;;5054026;28;20566;-84
2021/04/17 12:30:38;;;;;;;3.63;1.30;;;19.00;35.90;;;;;;5071661;28;20176;-83
2021/04/17 12:33:05;;;;;;;3.13;1.40;;;18.90;36.10;;;;;;5054422;28;20622;-83
2021/04/17 12:35:31;;;;;;;3.17;1.30;;;18.80;36.30;;;;;;5071914;28;20559;-83
2021/04/17 12:37:57;;;;;;;4.17;1.60;;;18.80;36.40;;;;;;5053674;28;20566;-84
2021/04/17 12:40:23;;;;;;;5.07;2.07;;;18.70;36.60;;;;;;5053922;28;20164;-84
2021/04/17 12:42:49;;;;;;;2.40;1.67;;;18.70;36.50;;;;;;5053847;28;20602;-83
2021/04/17 12:45:15;;;;;;;3.70;1.90;;;18.60;36.60;;;;;;5053730;28;20583;-83
2021/04/17 12:47:41;;;;;;;3.10;1.73;;;18.40;36.40;;;;;;5072389;28;20165;-84
2021/04/17 12:50:08;;;;;;;2.67;1.63;;;18.30;36.80;;;;;;5057062;28;20233;-83
2021/04/17 12:52:35;;;;;;;2.97;1.50;;;18.20;36.50;;;;;;5070563;28;20617;-83
2021/04/17 12:55:01;;;;;;;3.17;1.30;;;18.00;36.50;;;;;;5072116;28;20653;-82
2021/04/17 12:57:26;;;;;;;3.63;1.83;;;17.90;36.60;;;;;;5074251;28;20652;-83
2021/04/17 12:59:52;;;;;;;2.17;1.20;;;17.70;36.70;;;;;;5076282;28;20642;-83
2021/04/17 13:02:18;;;;;;;6.43;1.87;;;17.60;36.70;;;;;;5058995;28;20226;-83